DAAJ/DJG METAR and TAF weather

Enter ICAO airport designator
Station Type Date Time Source
DAAJ METAR 2022/08/12 14:00 UTC NOAA

DAAJ 121400Z 03006KT CAVOK 36/M01 Q1016


Station Type Date Time Source
DAAJ Decoded METAR 2022/08/12 14:00 UTC NOAA

Djanet, Algeria (DAAJ) 24-33N 009-28E 1054M
Aug 12, 2022 - 10:00 AM EDT / 2022.08.12 1400 UTC
Wind: from the NNE (030 degrees) at 7 MPH (6 KT):0
Visibility: greater than 7 mile(s):0
Temperature: 96 F (36 C)
Dew Point: 30 F (-1 C)
Relative Humidity: 9%
Pressure (altimeter): 30.00 in. Hg (1016 hPa)
ob: DAAJ 121400Z 03006KT CAVOK 36/M01 Q1016
cycle: 14

Station Type Date Time Source
DAAJ TAF 2022/08/12 12:33 UTC NOAA

TAF DAAJ 121100Z 1212/1312 12010KT CAVOK

Example: see airport list